createdAt,value
2023-06-10T00:00:35.930Z,19.06
2023-06-10T00:01:38.614Z,19.02
2023-06-10T00:02:41.808Z,18.97
2023-06-10T00:03:45.974Z,18.98
2023-06-10T00:04:49.219Z,18.94
2023-06-10T00:05:52.090Z,18.90
2023-06-10T00:06:55.328Z,18.86
2023-06-10T00:07:58.612Z,18.82
2023-06-10T00:09:02.620Z,18.81
2023-06-10T00:10:08.955Z,18.78
2023-06-10T00:11:11.996Z,18.77
2023-06-10T00:12:14.596Z,18.73
2023-06-10T00:13:18.236Z,18.70
2023-06-10T00:14:21.001Z,18.69
2023-06-10T00:15:23.669Z,18.65
2023-06-10T00:16:26.777Z,18.64
2023-06-10T00:17:30.570Z,18.62
2023-06-10T00:18:33.235Z,18.59
2023-06-10T00:19:36.862Z,18.56
2023-06-10T00:20:40.673Z,18.54
2023-06-10T00:21:43.352Z,18.52
2023-06-10T00:22:47.372Z,18.49
2023-06-10T00:23:50.183Z,18.46
2023-06-10T00:24:53.399Z,18.44
2023-06-10T00:25:56.055Z,18.40
2023-06-10T00:26:58.649Z,18.36
2023-06-10T00:28:01.216Z,18.30
2023-06-10T00:29:04.227Z,18.27
2023-06-10T00:30:08.640Z,18.23
2023-06-10T00:31:11.434Z,18.19
2023-06-10T00:32:14.060Z,18.19
2023-06-10T00:33:16.712Z,18.17
2023-06-10T00:34:19.309Z,18.16
2023-06-10T00:35:22.191Z,18.12
2023-06-10T00:36:24.768Z,18.08
2023-06-10T00:37:27.474Z,18.04
2023-06-10T00:38:30.565Z,18.01
2023-06-10T00:39:33.169Z,17.98
2023-06-10T00:40:41.768Z,17.94
2023-06-10T00:41:44.493Z,17.91
2023-06-10T00:42:47.149Z,17.89
2023-06-10T00:43:49.766Z,17.87
2023-06-10T00:44:53.140Z,17.86
2023-06-10T00:45:56.330Z,17.85
2023-06-10T00:46:59.098Z,17.81
2023-06-10T00:48:02.868Z,17.78
2023-06-10T00:49:05.803Z,17.77
2023-06-10T00:50:09.012Z,17.73
2023-06-10T00:51:12.239Z,17.71
2023-06-10T00:52:17.541Z,17.69
2023-06-10T00:53:20.701Z,17.66
2023-06-10T00:54:23.741Z,17.60
2023-06-10T00:55:28.850Z,17.59
2023-06-10T00:56:31.874Z,17.57
2023-06-10T00:57:35.857Z,17.53
2023-06-10T00:58:38.797Z,17.51
2023-06-10T00:59:43.351Z,17.48
2023-06-10T01:00:46.833Z,17.46
2023-06-10T01:01:49.259Z,17.42
2023-06-10T01:02:55.241Z,17.38
2023-06-10T01:04:00.203Z,17.35
2023-06-10T01:05:05.492Z,17.34
2023-06-10T01:06:39.006Z,17.31
2023-06-10T01:08:05.998Z,17.26
2023-06-10T01:09:18.820Z,17.22
2023-06-10T01:10:59.557Z,17.21
2023-06-10T01:12:18.605Z,17.14
2023-06-10T01:13:25.382Z,17.10
2023-06-10T01:14:29.038Z,17.08
2023-06-10T01:15:35.656Z,17.06
2023-06-10T01:16:38.750Z,17.02
2023-06-10T01:18:01.252Z,17.00
2023-06-10T01:19:04.473Z,16.99
2023-06-10T01:20:13.365Z,16.97
2023-06-10T01:21:26.672Z,16.94
2023-06-10T01:22:38.917Z,16.93
2023-06-10T01:23:41.743Z,16.92
2023-06-10T01:24:45.162Z,16.89
2023-06-10T01:25:55.629Z,16.88
2023-06-10T01:27:02.087Z,16.85
2023-06-10T01:28:11.861Z,16.81
2023-06-10T01:29:20.944Z,16.78
2023-06-10T01:30:31.356Z,16.78
2023-06-10T01:31:59.002Z,16.76
2023-06-10T01:33:03.671Z,16.73
2023-06-10T01:34:14.376Z,16.70
2023-06-10T01:35:18.758Z,16.69
2023-06-10T01:36:23.838Z,16.66
2023-06-10T01:37:27.960Z,16.64
2023-06-10T01:38:35.309Z,16.61
2023-06-10T01:39:39.000Z,16.60
2023-06-10T01:40:42.852Z,16.60
2023-06-10T01:41:45.992Z,16.59
2023-06-10T01:42:48.867Z,16.58
2023-06-10T01:43:51.502Z,16.57
2023-06-10T01:44:55.043Z,16.55
2023-06-10T01:45:57.417Z,16.53
2023-06-10T01:47:00.135Z,16.51
2023-06-10T01:48:02.930Z,16.50
2023-06-10T01:49:05.597Z,16.48
2023-06-10T01:50:08.809Z,16.45
2023-06-10T01:51:11.475Z,16.43
2023-06-10T01:52:14.298Z,16.41
2023-06-10T01:53:16.995Z,16.40
2023-06-10T01:54:19.591Z,16.38
2023-06-10T01:55:22.174Z,16.35
2023-06-10T01:56:24.845Z,16.32
2023-06-10T01:57:27.489Z,16.27
2023-06-10T01:58:30.184Z,16.25
2023-06-10T01:59:32.755Z,16.23
2023-06-10T02:00:35.409Z,16.23
2023-06-10T02:01:38.056Z,16.19
2023-06-10T02:02:40.782Z,16.19
2023-06-10T02:03:43.619Z,16.17
2023-06-10T02:04:46.343Z,16.16
2023-06-10T02:05:49.045Z,16.14
2023-06-10T02:06:52.141Z,16.10
2023-06-10T02:07:54.768Z,16.08
2023-06-10T02:08:57.344Z,16.07
2023-06-10T02:09:59.933Z,16.05
2023-06-10T02:11:02.583Z,16.03
2023-06-10T02:12:06.243Z,16.03
2023-06-10T02:13:09.003Z,16.04
2023-06-10T02:14:11.704Z,16.00
2023-06-10T02:15:14.335Z,15.97
2023-06-10T02:16:18.565Z,15.95
2023-06-10T02:17:21.284Z,15.91
2023-06-10T02:18:24.049Z,15.88
2023-06-10T02:19:28.289Z,15.85
2023-06-10T02:20:30.927Z,15.81
2023-06-10T02:21:33.640Z,15.78
2023-06-10T02:22:36.258Z,15.75
2023-06-10T02:23:38.983Z,15.72
2023-06-10T02:24:41.580Z,15.70
2023-06-10T02:25:44.256Z,15.67
2023-06-10T02:26:47.810Z,15.66
2023-06-10T02:27:50.157Z,15.62
2023-06-10T02:28:52.765Z,15.59
2023-06-10T02:29:55.433Z,15.59
2023-06-10T02:30:58.634Z,15.56
2023-06-10T02:32:01.327Z,15.54
2023-06-10T02:33:04.070Z,15.51
2023-06-10T02:34:06.858Z,15.50
2023-06-10T02:35:09.936Z,15.50
2023-06-10T02:36:17.139Z,15.50
2023-06-10T02:37:20.146Z,15.47
2023-06-10T02:38:22.826Z,15.47
2023-06-10T02:39:25.432Z,15.47
2023-06-10T02:40:28.048Z,15.47
2023-06-10T02:41:30.770Z,15.43
2023-06-10T02:42:33.458Z,15.42
2023-06-10T02:43:36.115Z,15.40
2023-06-10T02:44:39.512Z,15.38
2023-06-10T02:45:42.443Z,15.37
2023-06-10T02:46:45.175Z,15.36
2023-06-10T02:47:48.017Z,15.34
2023-06-10T02:48:53.451Z,15.34
2023-06-10T02:49:56.070Z,15.33
2023-06-10T02:50:58.736Z,15.31
2023-06-10T02:52:01.384Z,15.30
2023-06-10T02:53:03.974Z,15.30
2023-06-10T02:54:07.019Z,15.29
2023-06-10T02:55:09.973Z,15.27
2023-06-10T02:56:14.192Z,15.25
2023-06-10T02:57:17.153Z,15.21
2023-06-10T02:58:19.921Z,15.20
2023-06-10T02:59:22.715Z,15.19
2023-06-10T03:00:25.427Z,15.18
2023-06-10T03:01:28.581Z,15.17
2023-06-10T03:02:31.259Z,15.17
2023-06-10T03:03:35.302Z,15.18
2023-06-10T03:04:39.190Z,15.18
2023-06-10T03:05:41.948Z,15.18
2023-06-10T03:06:44.697Z,15.15
2023-06-10T03:07:49.034Z,15.11
2023-06-10T03:08:51.756Z,15.10
2023-06-10T03:09:54.546Z,15.08
2023-06-10T03:10:57.150Z,15.08
2023-06-10T03:11:59.823Z,15.07
2023-06-10T03:13:02.617Z,15.08
2023-06-10T03:14:05.235Z,15.09
2023-06-10T03:15:08.648Z,15.11
2023-06-10T03:16:11.536Z,15.10
2023-06-10T03:17:14.269Z,15.10
2023-06-10T03:18:17.052Z,15.09
2023-06-10T03:19:19.693Z,15.08
2023-06-10T03:20:23.292Z,15.07
2023-06-10T03:21:25.682Z,15.02
2023-06-10T03:22:28.357Z,15.00
2023-06-10T03:23:31.336Z,14.97
2023-06-10T03:24:33.969Z,14.95
2023-06-10T03:25:36.552Z,14.95
2023-06-10T03:26:39.153Z,14.92
2023-06-10T03:27:44.117Z,14.88
2023-06-10T03:28:46.873Z,14.87
2023-06-10T03:29:49.452Z,14.85
2023-06-10T03:30:53.325Z,14.83
2023-06-10T03:31:56.070Z,14.82
2023-06-10T03:32:58.911Z,14.80
2023-06-10T03:34:01.560Z,14.81
2023-06-10T03:35:04.497Z,14.79
2023-06-10T03:36:07.555Z,14.79
2023-06-10T03:37:18.889Z,14.81
2023-06-10T03:38:22.072Z,14.80
2023-06-10T03:39:25.224Z,14.78
2023-06-10T03:40:27.888Z,14.77
2023-06-10T03:41:30.563Z,14.75
2023-06-10T03:42:33.237Z,14.73
2023-06-10T03:43:35.891Z,14.69
2023-06-10T03:44:39.717Z,14.68
2023-06-10T03:45:42.911Z,14.64
2023-06-10T03:46:45.582Z,14.62
2023-06-10T03:47:49.718Z,14.63
2023-06-10T03:48:52.548Z,14.61
2023-06-10T03:49:55.247Z,14.61
2023-06-10T03:50:57.900Z,14.61
2023-06-10T03:52:00.691Z,14.61
2023-06-10T03:53:03.374Z,14.58
2023-06-10T03:54:06.179Z,14.56
2023-06-10T03:55:09.804Z,14.53
2023-06-10T03:56:12.928Z,14.51
2023-06-10T03:57:15.515Z,14.50
2023-06-10T03:58:19.615Z,14.48
2023-06-10T03:59:22.265Z,14.47
2023-06-10T04:00:24.926Z,14.45
2023-06-10T04:01:28.302Z,14.43
2023-06-10T04:02:31.031Z,14.40
2023-06-10T04:03:34.803Z,14.39
2023-06-10T04:04:39.127Z,14.39
2023-06-10T04:05:43.261Z,14.36
2023-06-10T04:06:46.111Z,14.35
2023-06-10T04:07:49.938Z,14.33
2023-06-10T04:08:53.016Z,14.32
2023-06-10T04:09:55.725Z,14.29
2023-06-10T04:10:58.355Z,14.27
2023-06-10T04:12:00.929Z,14.25
2023-06-10T04:13:04.819Z,14.22
2023-06-10T04:14:07.486Z,14.21
2023-06-10T04:15:10.755Z,14.20
2023-06-10T04:16:13.338Z,14.20
2023-06-10T04:17:16.668Z,14.21
2023-06-10T04:18:19.457Z,14.22
2023-06-10T04:19:22.797Z,14.22
2023-06-10T04:20:25.382Z,14.22
2023-06-10T04:21:28.642Z,14.23
2023-06-10T04:22:31.251Z,14.20
2023-06-10T04:23:33.940Z,14.19
2023-06-10T04:24:37.238Z,14.17
2023-06-10T04:25:39.913Z,14.16
2023-06-10T04:26:42.652Z,14.15
2023-06-10T04:27:45.659Z,14.15
2023-06-10T04:28:48.393Z,14.14
2023-06-10T04:29:50.971Z,14.14
2023-06-10T04:30:53.552Z,14.15
2023-06-10T04:31:56.379Z,14.17
2023-06-10T04:32:59.499Z,14.17
2023-06-10T04:34:02.485Z,14.15
2023-06-10T04:35:07.182Z,14.15
2023-06-10T04:36:10.229Z,14.16
2023-06-10T04:37:12.893Z,14.16
2023-06-10T04:38:16.133Z,14.17
2023-06-10T04:39:18.744Z,14.16
2023-06-10T04:40:21.658Z,14.14
2023-06-10T04:41:24.587Z,14.13
2023-06-10T04:42:27.231Z,14.13
2023-06-10T04:43:30.996Z,14.09
2023-06-10T04:44:33.683Z,14.06
2023-06-10T04:45:36.291Z,14.06
2023-06-10T04:46:39.005Z,14.05
2023-06-10T04:47:41.999Z,14.04
2023-06-10T04:48:48.567Z,14.04
2023-06-10T04:49:51.224Z,14.02
2023-06-10T04:50:54.005Z,13.98
2023-06-10T04:51:56.593Z,13.96
2023-06-10T04:52:59.264Z,13.95
2023-06-10T04:54:05.398Z,13.94
2023-06-10T04:55:09.232Z,13.93
2023-06-10T04:56:12.031Z,13.93
2023-06-10T04:57:14.664Z,13.94
2023-06-10T04:58:17.339Z,13.95
2023-06-10T04:59:19.995Z,13.95
2023-06-10T05:00:22.899Z,13.91
2023-06-10T05:01:25.677Z,13.92
2023-06-10T05:02:28.322Z,13.90
2023-06-10T05:03:31.102Z,13.86
2023-06-10T05:04:33.934Z,13.84
2023-06-10T05:05:36.535Z,13.83
2023-06-10T05:06:39.122Z,13.81
2023-06-10T05:07:41.725Z,13.79
2023-06-10T05:08:44.485Z,13.78
2023-06-10T05:09:47.318Z,13.77
2023-06-10T05:10:49.960Z,13.76
2023-06-10T05:11:52.698Z,13.74
2023-06-10T05:12:55.269Z,13.73
2023-06-10T05:13:57.887Z,13.72
2023-06-10T05:15:00.704Z,13.72
2023-06-10T05:16:04.112Z,13.71
2023-06-10T05:17:10.330Z,13.69
2023-06-10T05:18:14.271Z,13.67
2023-06-10T05:19:20.045Z,13.65
2023-06-10T05:20:22.821Z,13.63
2023-06-10T05:21:25.550Z,13.63
2023-06-10T05:22:29.022Z,13.60
2023-06-10T05:23:31.770Z,13.61
2023-06-10T05:24:34.477Z,13.59
2023-06-10T05:25:37.658Z,13.57
2023-06-10T05:26:40.592Z,13.55
2023-06-10T05:27:43.807Z,13.54
2023-06-10T05:28:46.873Z,13.52
2023-06-10T05:29:49.568Z,13.51
2023-06-10T05:30:52.314Z,13.49
2023-06-10T05:31:55.316Z,13.43
2023-06-10T05:32:58.020Z,13.42
2023-06-10T05:34:00.689Z,13.39
2023-06-10T05:35:05.304Z,13.36
2023-06-10T05:36:08.242Z,13.35
2023-06-10T05:37:11.080Z,13.29
2023-06-10T05:38:13.881Z,13.27
2023-06-10T05:39:16.474Z,13.25
2023-06-10T05:40:19.121Z,13.26
2023-06-10T05:41:22.450Z,13.27
2023-06-10T05:42:25.030Z,13.27
2023-06-10T05:43:27.638Z,13.22
2023-06-10T05:44:30.259Z,13.19
2023-06-10T05:45:32.918Z,13.18
2023-06-10T05:46:36.026Z,13.14
2023-06-10T05:47:38.728Z,13.13
2023-06-10T05:48:41.366Z,13.14
2023-06-10T05:49:43.976Z,13.16
2023-06-10T05:50:49.749Z,13.17
2023-06-10T05:51:54.190Z,13.16
2023-06-10T05:52:56.884Z,13.16
2023-06-10T05:53:59.562Z,13.15
2023-06-10T05:55:02.208Z,13.14
2023-06-10T05:56:04.918Z,13.10
2023-06-10T05:57:07.661Z,13.05
2023-06-10T05:58:10.460Z,13.00
2023-06-10T05:59:13.112Z,12.98
2023-06-10T06:00:16.179Z,12.95
2023-06-10T06:01:19.014Z,12.94
2023-06-10T06:02:21.736Z,12.94
2023-06-10T06:03:24.638Z,12.93
2023-06-10T06:04:27.448Z,12.93
2023-06-10T06:05:36.245Z,12.93
2023-06-10T06:06:42.000Z,12.91
2023-06-10T06:07:44.595Z,12.86
2023-06-10T06:08:47.168Z,12.82
2023-06-10T06:09:49.752Z,12.78
2023-06-10T06:10:52.367Z,12.79
2023-06-10T06:11:55.087Z,12.78
2023-06-10T06:12:57.696Z,12.78
2023-06-10T06:14:00.434Z,12.74
2023-06-10T06:15:03.044Z,12.72
2023-06-10T06:16:05.718Z,12.69
2023-06-10T06:17:09.045Z,12.66
2023-06-10T06:18:11.622Z,12.65
2023-06-10T06:19:14.262Z,12.63
2023-06-10T06:20:19.961Z,12.62
2023-06-10T06:21:22.853Z,12.61
2023-06-10T06:22:25.467Z,12.57
2023-06-10T06:23:28.108Z,12.53
2023-06-10T06:24:30.840Z,12.50
2023-06-10T06:25:33.559Z,12.47
2023-06-10T06:26:36.226Z,12.45
2023-06-10T06:27:38.860Z,12.43
2023-06-10T06:28:41.569Z,12.44
2023-06-10T06:29:44.157Z,12.44
2023-06-10T06:30:47.237Z,12.47
2023-06-10T06:31:49.838Z,12.46
2023-06-10T06:32:53.358Z,12.42
2023-06-10T06:33:55.959Z,12.36
2023-06-10T06:34:58.548Z,12.35
2023-06-10T06:36:03.866Z,12.35
2023-06-10T06:37:07.084Z,12.34
2023-06-10T06:38:09.673Z,12.34
2023-06-10T06:39:12.269Z,12.33
2023-06-10T06:40:15.083Z,12.28
2023-06-10T06:41:17.712Z,12.29
2023-06-10T06:42:20.925Z,12.26
2023-06-10T06:43:23.581Z,12.25
2023-06-10T06:44:26.183Z,12.22
2023-06-10T06:45:28.788Z,12.19
2023-06-10T06:46:31.393Z,12.17
2023-06-10T06:47:34.065Z,12.17
2023-06-10T06:48:37.238Z,12.16
2023-06-10T06:49:40.092Z,12.15
2023-06-10T06:50:43.384Z,12.15
2023-06-10T06:51:46.038Z,12.15
2023-06-10T06:52:48.675Z,12.13
2023-06-10T06:53:52.814Z,12.11
2023-06-10T06:54:55.524Z,12.09
2023-06-10T06:55:58.129Z,12.07
2023-06-10T06:57:00.807Z,12.05
2023-06-10T06:58:05.639Z,12.03
2023-06-10T06:59:08.302Z,12.01
2023-06-10T07:00:11.395Z,12.00
2023-06-10T07:01:13.996Z,11.98
2023-06-10T07:02:16.871Z,11.95
2023-06-10T07:03:19.530Z,11.96
2023-06-10T07:04:23.653Z,11.94
2023-06-10T07:05:28.837Z,11.92
2023-06-10T07:06:31.477Z,11.91
2023-06-10T07:07:34.064Z,11.88
2023-06-10T07:08:36.714Z,11.88
2023-06-10T07:09:40.075Z,11.88
2023-06-10T07:10:42.664Z,11.85
2023-06-10T07:11:45.283Z,11.85
2023-06-10T07:12:47.870Z,11.84
2023-06-10T07:13:50.996Z,11.82
2023-06-10T07:14:53.679Z,11.82
2023-06-10T07:15:56.391Z,11.80
2023-06-10T07:16:59.020Z,11.79
2023-06-10T07:18:01.705Z,11.78
2023-06-10T07:19:06.256Z,11.75
2023-06-10T07:20:09.739Z,11.74
2023-06-10T07:21:12.321Z,11.71
2023-06-10T07:22:15.743Z,11.70
2023-06-10T07:23:18.306Z,11.72
2023-06-10T07:24:21.841Z,11.70
2023-06-10T07:25:24.497Z,11.69
2023-06-10T07:26:27.427Z,11.67
2023-06-10T07:27:30.024Z,11.66
2023-06-10T07:28:32.630Z,11.63
2023-06-10T07:29:37.272Z,11.60
2023-06-10T07:30:39.928Z,11.59
2023-06-10T07:31:43.371Z,11.57
2023-06-10T07:32:46.097Z,11.54
2023-06-10T07:33:49.156Z,11.52
2023-06-10T07:34:52.634Z,11.49
2023-06-10T07:35:55.379Z,11.45
2023-06-10T07:36:58.000Z,11.41
2023-06-10T07:38:00.609Z,11.39
2023-06-10T07:39:03.355Z,11.38
2023-06-10T07:40:06.824Z,11.37
2023-06-10T07:41:09.996Z,11.35
2023-06-10T07:42:12.693Z,11.32
2023-06-10T07:43:15.301Z,11.32
2023-06-10T07:44:17.969Z,11.33
2023-06-10T07:45:20.772Z,11.38
2023-06-10T07:46:24.702Z,11.40
2023-06-10T07:47:27.942Z,11.40
2023-06-10T07:48:30.564Z,11.41
2023-06-10T07:49:33.175Z,11.41
2023-06-10T07:50:36.048Z,11.40
2023-06-10T07:51:38.665Z,11.38
2023-06-10T07:52:41.399Z,11.36
2023-06-10T07:53:44.227Z,11.35
2023-06-10T07:54:46.864Z,11.33
2023-06-10T07:55:49.604Z,11.31
2023-06-10T07:56:54.442Z,11.30
2023-06-10T07:57:57.105Z,11.29
2023-06-10T07:58:59.707Z,11.27
2023-06-10T08:00:04.333Z,11.27
2023-06-10T08:01:07.166Z,11.28
2023-06-10T08:02:09.753Z,11.27
2023-06-10T08:03:12.743Z,11.27
2023-06-10T08:04:15.493Z,11.26
2023-06-10T08:05:18.534Z,11.29
2023-06-10T08:06:21.329Z,11.30
2023-06-10T08:07:23.926Z,11.32
2023-06-10T08:08:26.495Z,11.33
2023-06-10T08:09:29.154Z,11.32
2023-06-10T08:10:32.434Z,11.30
2023-06-10T08:11:35.128Z,11.29
2023-06-10T08:12:38.204Z,11.29
2023-06-10T08:13:41.614Z,11.28
2023-06-10T08:14:44.221Z,11.27
2023-06-10T08:15:46.876Z,11.25
2023-06-10T08:16:49.581Z,11.26
2023-06-10T08:17:53.080Z,11.25
2023-06-10T08:18:56.084Z,11.24
2023-06-10T08:19:58.895Z,11.21
2023-06-10T08:21:01.910Z,11.17
2023-06-10T08:22:04.657Z,11.18
2023-06-10T08:23:07.369Z,11.17
2023-06-10T08:24:10.841Z,11.17
2023-06-10T08:25:13.521Z,11.18
2023-06-10T08:26:16.322Z,11.21
2023-06-10T08:27:18.937Z,11.19
2023-06-10T08:28:21.554Z,11.19
2023-06-10T08:29:24.760Z,11.17
2023-06-10T08:30:27.446Z,11.15
2023-06-10T08:31:30.095Z,11.13
2023-06-10T08:32:32.777Z,11.12
2023-06-10T08:33:35.475Z,11.10
2023-06-10T08:34:38.375Z,11.11
2023-06-10T08:35:41.082Z,11.11
2023-06-10T08:36:46.331Z,11.12
2023-06-10T08:37:49.296Z,11.12
2023-06-10T08:38:51.892Z,11.10
2023-06-10T08:39:54.472Z,11.08
2023-06-10T08:41:01.906Z,11.08
2023-06-10T08:42:25.481Z,11.03
2023-06-10T08:43:30.754Z,11.02
2023-06-10T08:44:34.692Z,11.01
2023-06-10T08:45:38.486Z,11.00
2023-06-10T08:46:46.605Z,10.98
2023-06-10T08:47:54.986Z,10.97
2023-06-10T08:49:04.610Z,10.94
2023-06-10T08:50:08.862Z,10.92
2023-06-10T08:51:13.953Z,10.90
2023-06-10T08:52:19.221Z,10.90
2023-06-10T08:53:22.611Z,10.90
2023-06-10T08:54:28.974Z,10.89
2023-06-10T08:55:37.855Z,10.88
2023-06-10T08:56:42.074Z,10.94
2023-06-10T08:57:46.144Z,10.94
2023-06-10T08:58:50.042Z,10.96
2023-06-10T08:59:54.078Z,10.97
2023-06-10T09:00:57.007Z,10.97
2023-06-10T09:02:00.502Z,10.94
2023-06-10T09:03:06.627Z,10.94
2023-06-10T09:04:09.445Z,10.91
2023-06-10T09:05:12.729Z,10.90
2023-06-10T09:06:15.369Z,10.91
2023-06-10T09:07:18.666Z,10.92
2023-06-10T09:08:21.554Z,10.91
2023-06-10T09:09:25.113Z,10.89
2023-06-10T09:10:28.462Z,10.86
2023-06-10T09:11:31.071Z,10.87
2023-06-10T09:12:33.649Z,10.90
2023-06-10T09:13:36.239Z,10.91
2023-06-10T09:14:38.906Z,10.92
2023-06-10T09:15:43.441Z,10.90
2023-06-10T09:16:48.317Z,10.86
2023-06-10T09:17:51.051Z,10.84
2023-06-10T09:18:56.679Z,10.80
2023-06-10T09:19:59.456Z,10.74
2023-06-10T09:21:02.083Z,10.73
2023-06-10T09:22:05.000Z,10.71
2023-06-10T09:23:08.674Z,10.68
2023-06-10T09:24:11.100Z,10.65
2023-06-10T09:25:15.380Z,10.64
2023-06-10T09:26:18.139Z,10.63
2023-06-10T09:27:20.805Z,10.62
2023-06-10T09:28:23.439Z,10.62
2023-06-10T09:29:26.065Z,10.61
2023-06-10T09:30:33.021Z,10.57
2023-06-10T09:31:40.339Z,10.62
2023-06-10T09:32:43.476Z,10.65
2023-06-10T09:33:47.187Z,10.66
2023-06-10T09:34:49.958Z,10.64
2023-06-10T09:35:52.827Z,10.62
2023-06-10T09:36:55.891Z,10.62
2023-06-10T09:38:01.177Z,10.62
2023-06-10T09:39:04.483Z,10.61
2023-06-10T09:40:09.703Z,10.60
2023-06-10T09:41:14.811Z,10.61
2023-06-10T09:42:20.888Z,10.58
2023-06-10T09:43:23.969Z,10.55
2023-06-10T09:44:27.129Z,10.52
2023-06-10T09:45:33.355Z,10.52
2023-06-10T09:46:36.163Z,10.49
2023-06-10T09:47:39.060Z,10.48
2023-06-10T09:48:45.216Z,10.47
2023-06-10T09:49:47.791Z,10.45
2023-06-10T09:50:50.560Z,10.45
2023-06-10T09:51:54.757Z,10.45
2023-06-10T09:52:58.275Z,10.45
2023-06-10T09:54:04.953Z,10.45
2023-06-10T09:55:10.261Z,10.44
2023-06-10T09:56:12.887Z,10.43
2023-06-10T09:57:16.036Z,10.41
2023-06-10T09:58:18.678Z,10.41
2023-06-10T09:59:32.938Z,10.40
2023-06-10T10:00:36.136Z,10.39
2023-06-10T10:01:38.847Z,10.40
2023-06-10T10:02:53.430Z,10.39
2023-06-10T10:03:56.269Z,10.36
2023-06-10T10:05:08.589Z,10.35
2023-06-10T10:06:11.668Z,10.33
2023-06-10T10:07:14.864Z,10.34
2023-06-10T10:08:17.490Z,10.33
2023-06-10T10:09:20.237Z,10.35
2023-06-10T10:10:23.369Z,10.35
2023-06-10T10:11:27.694Z,10.35
2023-06-10T10:12:31.536Z,10.36
2023-06-10T10:13:37.673Z,10.39
2023-06-10T10:14:41.521Z,10.41
2023-06-10T10:15:46.338Z,10.44
2023-06-10T10:16:51.176Z,10.44
2023-06-10T10:18:10.999Z,10.44
2023-06-10T10:19:29.004Z,10.45
2023-06-10T10:20:35.375Z,10.45
2023-06-10T10:21:46.122Z,10.45
2023-06-10T10:22:51.495Z,10.46
2023-06-10T10:23:55.625Z,10.47
2023-06-10T10:25:01.416Z,10.47
2023-06-10T10:26:10.643Z,10.48
2023-06-10T10:27:37.326Z,10.48
2023-06-10T10:28:46.350Z,10.51
2023-06-10T10:29:53.638Z,10.53
2023-06-10T10:31:03.918Z,10.56
2023-06-10T10:32:09.136Z,10.59
2023-06-10T10:33:19.296Z,10.60
2023-06-10T10:34:32.814Z,10.60
2023-06-10T10:35:36.331Z,10.60
2023-06-10T10:36:39.933Z,10.60
2023-06-10T10:37:42.717Z,10.59
2023-06-10T10:38:48.164Z,10.61
2023-06-10T10:39:52.812Z,10.64
2023-06-10T10:40:57.674Z,10.65
2023-06-10T10:42:00.489Z,10.68
2023-06-10T10:43:03.998Z,10.68
2023-06-10T10:44:09.596Z,10.71
2023-06-10T10:45:13.114Z,10.73
2023-06-10T10:46:16.555Z,10.74
2023-06-10T10:47:23.504Z,10.74
2023-06-10T10:48:26.741Z,10.76
2023-06-10T10:49:29.567Z,10.77
2023-06-10T10:50:32.446Z,10.79
2023-06-10T10:51:38.757Z,10.81
2023-06-10T10:52:56.498Z,10.85
2023-06-10T10:54:17.480Z,10.85
2023-06-10T10:55:20.249Z,10.87
2023-06-10T10:56:23.332Z,10.88
2023-06-10T10:57:26.214Z,10.89
2023-06-10T10:58:28.904Z,10.91
2023-06-10T11:00:01.335Z,10.95
2023-06-10T11:01:18.859Z,10.96
2023-06-10T11:02:40.360Z,10.98
2023-06-10T11:03:48.905Z,11.02
2023-06-10T11:04:51.851Z,11.04
2023-06-10T11:05:54.529Z,11.06
2023-06-10T11:07:07.988Z,11.09
2023-06-10T11:08:11.457Z,11.12
2023-06-10T11:09:33.418Z,11.16
2023-06-10T11:10:38.149Z,11.20
2023-06-10T11:11:52.070Z,11.22
2023-06-10T11:12:54.956Z,11.24
2023-06-10T11:14:38.366Z,11.28
2023-06-10T11:15:46.503Z,11.30
2023-06-10T11:16:50.429Z,11.32
2023-06-10T11:18:21.337Z,11.38
2023-06-10T11:19:48.206Z,11.41
2023-06-10T11:20:50.749Z,11.43
2023-06-10T11:22:01.636Z,11.45
2023-06-10T11:23:04.571Z,11.46
2023-06-10T11:24:16.278Z,11.49
2023-06-10T11:25:19.018Z,11.50
2023-06-10T11:26:34.083Z,11.54
2023-06-10T11:27:40.844Z,11.55
2023-06-10T11:29:03.118Z,11.57
2023-06-10T11:30:05.646Z,11.60
2023-06-10T11:31:08.536Z,11.62
2023-06-10T11:32:11.551Z,11.63
2023-06-10T11:33:19.147Z,11.67
2023-06-10T11:34:27.328Z,11.70
2023-06-10T11:35:31.646Z,11.72
2023-06-10T11:36:38.182Z,11.72
2023-06-10T11:37:40.923Z,11.75
2023-06-10T11:38:45.225Z,11.76
2023-06-10T11:39:48.063Z,11.78
2023-06-10T11:40:54.418Z,11.78
2023-06-10T11:41:57.482Z,11.80
2023-06-10T11:43:00.482Z,11.83
2023-06-10T11:44:11.581Z,11.87
2023-06-10T11:45:18.618Z,11.88
2023-06-10T11:46:21.819Z,11.90
2023-06-10T11:47:24.494Z,11.90
2023-06-10T11:48:29.994Z,11.95
2023-06-10T11:49:32.633Z,11.95
2023-06-10T11:50:35.877Z,11.97
2023-06-10T11:51:46.705Z,12.00
2023-06-10T11:52:49.335Z,12.02
2023-06-10T11:53:52.267Z,12.04
2023-06-10T11:54:57.839Z,12.05
2023-06-10T11:56:00.551Z,12.08
2023-06-10T11:57:04.757Z,12.12
2023-06-10T11:58:13.568Z,12.15
2023-06-10T11:59:16.525Z,12.19
2023-06-10T12:00:19.901Z,12.21
2023-06-10T12:01:30.032Z,12.22
2023-06-10T12:02:33.085Z,12.25
2023-06-10T12:03:40.028Z,12.28
2023-06-10T12:04:42.715Z,12.32
2023-06-10T12:06:05.136Z,12.35
2023-06-10T12:07:07.753Z,12.36
2023-06-10T12:08:14.169Z,12.41
2023-06-10T12:09:25.068Z,12.43
2023-06-10T12:10:29.443Z,12.45
2023-06-10T12:11:32.547Z,12.46
2023-06-10T12:12:38.428Z,12.49
2023-06-10T12:13:51.491Z,12.50
2023-06-10T12:15:00.314Z,12.54
2023-06-10T12:16:11.367Z,12.54
2023-06-10T12:17:14.109Z,12.56
2023-06-10T12:18:24.647Z,12.62
2023-06-10T12:19:28.433Z,12.63
2023-06-10T12:20:37.817Z,12.68
2023-06-10T12:21:40.620Z,12.75
2023-06-10T12:22:44.895Z,12.76
2023-06-10T12:24:04.029Z,12.77
2023-06-10T12:25:11.053Z,12.77
2023-06-10T12:26:16.023Z,12.79
2023-06-10T12:27:20.486Z,12.83
2023-06-10T12:28:27.694Z,12.86
2023-06-10T12:29:31.496Z,12.88
2023-06-10T12:30:34.660Z,12.92
2023-06-10T12:31:54.475Z,12.96
2023-06-10T12:32:58.422Z,12.98
2023-06-10T12:34:10.544Z,13.01
2023-06-10T12:35:15.194Z,13.04
2023-06-10T12:36:19.538Z,13.07
2023-06-10T12:37:23.261Z,13.10
2023-06-10T12:38:28.762Z,13.12
2023-06-10T12:39:32.272Z,13.14
2023-06-10T12:40:43.687Z,13.16
2023-06-10T12:41:51.285Z,13.18
2023-06-10T12:42:53.924Z,13.21
2023-06-10T12:43:56.552Z,13.24
2023-06-10T12:45:02.571Z,13.26
2023-06-10T12:46:13.396Z,13.30
2023-06-10T12:47:16.573Z,13.33
2023-06-10T12:48:25.448Z,13.36
2023-06-10T12:49:29.409Z,13.41
2023-06-10T12:50:32.996Z,13.43
2023-06-10T12:51:36.748Z,13.44
2023-06-10T12:52:39.505Z,13.47
2023-06-10T12:53:42.192Z,13.49
2023-06-10T12:54:44.777Z,13.52
2023-06-10T12:55:47.789Z,13.55
2023-06-10T12:56:50.498Z,13.59
2023-06-10T12:57:53.185Z,13.62
2023-06-10T12:58:55.837Z,13.64
2023-06-10T13:00:05.351Z,13.67
2023-06-10T13:01:08.412Z,13.68
2023-06-10T13:02:12.431Z,13.70
2023-06-10T13:03:15.185Z,13.73
2023-06-10T13:04:17.901Z,13.75
2023-06-10T13:05:22.066Z,13.77
2023-06-10T13:06:25.141Z,13.78
2023-06-10T13:07:28.102Z,13.82
2023-06-10T13:08:30.804Z,13.84
2023-06-10T13:09:33.402Z,13.86
2023-06-10T13:10:36.697Z,13.88
2023-06-10T13:11:39.443Z,13.95
2023-06-10T13:12:47.474Z,13.98
2023-06-10T13:13:50.832Z,14.03
2023-06-10T13:14:55.206Z,14.05
2023-06-10T13:15:57.856Z,14.05
2023-06-10T13:17:00.688Z,14.07
2023-06-10T13:18:05.453Z,14.08
2023-06-10T13:19:08.219Z,14.10
2023-06-10T13:20:11.254Z,14.13
2023-06-10T13:21:14.127Z,14.15
2023-06-10T13:22:16.944Z,14.18
2023-06-10T13:23:19.532Z,14.20
2023-06-10T13:24:22.278Z,14.22
2023-06-10T13:25:25.723Z,14.23
2023-06-10T13:26:28.357Z,14.28
2023-06-10T13:27:31.180Z,14.30
2023-06-10T13:28:36.038Z,14.31
2023-06-10T13:29:39.009Z,14.33
2023-06-10T13:30:41.614Z,14.39
2023-06-10T13:31:44.298Z,14.41
2023-06-10T13:32:47.019Z,14.41
2023-06-10T13:33:49.677Z,14.43
2023-06-10T13:34:53.012Z,14.43
2023-06-10T13:35:55.772Z,14.47
2023-06-10T13:36:58.587Z,14.48
2023-06-10T13:38:01.226Z,14.50
2023-06-10T13:39:03.898Z,14.52
2023-06-10T13:40:07.536Z,14.55
2023-06-10T13:41:09.875Z,14.56
2023-06-10T13:42:12.642Z,14.57
2023-06-10T13:43:15.274Z,14.60
2023-06-10T13:44:17.901Z,14.64
2023-06-10T13:45:20.548Z,14.64
2023-06-10T13:46:23.916Z,14.64
2023-06-10T13:47:27.067Z,14.68
2023-06-10T13:48:29.794Z,14.67
2023-06-10T13:49:32.727Z,14.68